Time;durP1;ratioP1;P1;durP2;ratioP2;P2;SDS_P1;SDS_P2;PMS_P1;PMS_P2;Temp;Humidity;BMP_temperature;BMP_pressure;BME280_temperature;BME280_humidity;BME280_pressure;Samples;Min_cycle;Max_cycle;Signal;HPM_P1;HPM_P2
2021/05/25 00:00:12;;;;;;;14.18;2.33;;;;;;;22.72;34.13;99124.22;5057583;28;20040;-77
2021/05/25 00:02:39;;;;;;;6.00;2.20;;;;;;;22.71;33.96;99133.41;5040834;28;20036;-77
2021/05/25 00:05:05;;;;;;;8.50;2.30;;;;;;;22.72;34.02;99134.28;5057389;28;20044;-76
2021/05/25 00:07:33;;;;;;;15.03;2.37;;;;;;;22.76;33.75;99124.66;5057367;28;20036;-76
2021/05/25 00:09:59;;;;;;;4.00;1.90;;;;;;;22.77;33.94;99129.03;5024463;28;20048;-76
2021/05/25 00:12:26;;;;;;;5.75;1.77;;;;;;;22.82;33.70;99134.72;5040534;28;20507;-75
2021/05/25 00:14:52;;;;;;;6.93;2.10;;;;;;;22.82;33.66;99134.72;5041023;28;20048;-77
2021/05/25 00:17:18;;;;;;;9.27;2.05;;;;;;;22.77;33.59;99110.81;5057365;28;20087;-75
2021/05/25 00:19:44;;;;;;;9.02;2.00;;;;;;;22.81;33.65;99122.13;5040959;28;20131;-75
2021/05/25 00:22:12;;;;;;;6.72;2.22;;;;;;;22.78;33.55;99117.09;5057244;28;20072;-75
2021/05/25 00:24:38;;;;;;;5.32;2.05;;;;;;;22.86;33.51;99119.63;5073668;28;20117;-75
2021/05/25 00:27:06;;;;;;;9.60;2.00;;;;;;;22.90;33.44;99120.88;5041115;28;20041;-74
2021/05/25 00:29:32;;;;;;;5.70;1.67;;;;;;;22.95;33.06;99118.41;5073653;28;20041;-75
2021/05/25 00:32:00;;;;;;;5.03;1.70;;;;;;;22.98;33.02;99115.28;5040417;28;20084;-74
2021/05/25 00:34:26;;;;;;;8.48;2.13;;;;;;;23.01;33.13;99116.72;5040222;28;20043;-74
2021/05/25 00:36:52;;;;;;;10.80;2.03;;;;;;;23.04;32.92;99116.31;5040303;28;20048;-74
2021/05/25 00:39:18;;;;;;;6.85;1.60;;;;;;;23.05;33.08;99118.00;5023152;28;20060;-75
2021/05/25 00:41:44;;;;;;;8.02;2.35;;;;;;;23.05;32.95;99111.69;5024264;28;20074;-75
2021/05/25 00:44:10;;;;;;;8.68;2.50;;;;;;;22.97;33.00;99110.84;5023387;28;20453;-75
2021/05/25 00:46:37;;;;;;;8.85;2.15;;;;;;;23.05;33.13;99122.59;5007126;28;20070;-76
2021/05/25 00:49:04;;;;;;;4.85;2.40;;;;;;;23.03;32.99;99114.66;5073122;28;20495;-75
2021/05/25 00:51:30;;;;;;;8.30;2.00;;;;;;;23.09;32.75;99119.25;5056617;28;20045;-75
2021/05/25 00:53:56;;;;;;;6.18;1.77;;;;;;;23.14;32.96;99110.47;5007836;28;20067;-76
2021/05/25 00:56:22;;;;;;;7.85;1.73;;;;;;;23.23;32.66;99123.66;5072848;28;20079;-75
2021/05/25 00:58:48;;;;;;;5.53;1.80;;;;;;;23.31;32.48;99111.69;5023475;28;20526;-75
2021/05/25 01:01:14;;;;;;;7.32;1.83;;;;;;;23.38;32.52;99114.44;5023425;28;20041;-75
2021/05/25 01:03:40;;;;;;;8.52;1.90;;;;;;;23.31;32.51;99102.69;5056377;28;20048;-74
2021/05/25 01:06:06;;;;;;;7.88;2.08;;;;;;;23.39;32.66;99119.66;5056030;28;20415;-75
2021/05/25 01:08:34;;;;;;;14.35;2.22;;;;;;;23.41;32.54;99116.75;5039595;28;20072;-75
2021/05/25 01:11:05;;;;;;;13.50;2.25;;;;;;;23.37;32.65;99107.31;5056562;28;20045;-75
2021/05/25 01:13:40;;;;;;;5.05;2.00;;;;;;;23.37;32.64;99119.06;5056625;28;20052;-75
2021/05/25 01:16:07;;;;;;;6.70;1.80;;;;;;;23.39;32.67;99119.66;5057212;28;20062;-75
2021/05/25 01:18:33;;;;;;;5.15;1.90;;;;;;;23.45;32.60;99124.28;5055845;28;20048;-76
2021/05/25 01:20:59;;;;;;;10.88;2.28;;;;;;;23.39;32.64;99129.75;5056017;28;20048;-75
2021/05/25 01:23:25;;;;;;;7.15;1.70;;;;;;;23.34;32.77;99116.75;5055801;28;20041;-75
2021/05/25 01:25:52;;;;;;;9.05;1.98;;;;;;;23.36;32.90;99122.84;5056015;28;20049;-76
2021/05/25 01:28:20;;;;;;;5.60;1.70;;;;;;;23.42;32.65;99127.44;5055977;28;20152;-75
2021/05/25 01:30:50;;;;;;;12.57;2.00;;;;;;;23.43;32.46;99128.25;5072511;28;20498;-77
2021/05/25 01:33:17;;;;;;;7.40;1.88;;;;;;;23.54;32.53;99137.69;5055811;28;20048;-77
2021/05/25 01:35:43;;;;;;;8.60;1.90;;;;;;;23.49;32.34;99146.53;5055749;28;20036;-76
2021/05/25 01:38:10;;;;;;;15.30;2.10;;;;;;;23.40;32.58;99143.19;5039058;28;20044;-76
2021/05/25 01:40:36;;;;;;;10.25;2.17;;;;;;;23.35;32.63;99139.41;5038874;28;20045;-76
2021/05/25 01:43:02;;;;;;;4.30;1.77;;;;;;;23.32;32.53;99132.50;5021466;28;20562;-75
2021/05/25 01:45:29;;;;;;;6.85;1.85;;;;;;;23.40;32.62;99126.81;5055234;28;20041;-76
2021/05/25 01:47:56;;;;;;;7.55;2.50;;;;;;;23.50;32.45;99135.38;5005962;28;20044;-76
2021/05/25 01:50:24;;;;;;;9.20;2.15;;;;;;;23.46;32.44;99130.56;5054135;28;20141;-77
2021/05/25 01:52:57;;;;;;;5.63;1.98;;;;;;;23.54;32.46;99137.69;5039470;28;20131;-76
2021/05/25 01:55:43;;;;;;;11.52;2.13;;;;;;;23.59;32.54;99141.50;5071909;28;20078;-76
2021/05/25 01:58:09;;;;;;;11.15;2.00;;;;;;;23.61;32.49;99142.09;5037590;28;20492;-76
2021/05/25 02:00:36;;;;;;;17.52;2.40;;;;;;;23.48;32.55;99118.41;5018833;28;20037;-76
2021/05/25 02:03:02;;;;;;;10.18;2.38;;;;;;;23.57;32.66;99137.28;5051619;28;20438;-76
2021/05/25 02:05:28;;;;;;;8.50;2.20;;;;;;;23.57;32.67;99127.22;5019064;28;20049;-76
2021/05/25 02:07:54;;;;;;;9.63;1.90;;;;;;;23.70;32.55;99137.31;5002425;28;20535;-76
2021/05/25 02:10:31;;;;;;;10.27;2.25;;;;;;;23.79;32.44;99130.56;5035109;28;20052;-75
2021/05/25 02:13:05;;;;;;;8.50;2.00;;;;;;;23.88;32.57;99123.84;5018975;28;20064;-77
2021/05/25 02:15:32;;;;;;;9.18;1.80;;;;;;;23.89;32.22;99114.59;5036390;28;20084;-78
2021/05/25 02:18:06;;;;;;;12.02;1.63;;;;;;;24.05;32.08;99121.47;5002675;28;20045;-76
2021/05/25 02:20:32;;;;;;;8.00;2.42;;;;;;;24.16;32.12;99125.41;5019121;28;20088;-76
2021/05/25 02:22:58;;;;;;;13.55;2.00;;;;;;;24.17;31.94;99116.16;5034876;28;20376;-75
2021/05/25 02:25:24;;;;;;;8.50;1.95;;;;;;;24.21;32.10;99111.94;5034867;28;20132;-75
2021/05/25 02:27:50;;;;;;;14.25;1.95;;;;;;;24.23;31.95;99107.94;5034997;28;20045;-76
2021/05/25 02:30:17;;;;;;;9.13;2.03;;;;;;;24.28;32.12;99120.94;5051608;28;20056;-74
2021/05/25 02:32:43;;;;;;;13.70;2.90;;;;;;;24.34;32.08;99119.25;5018087;28;20140;-75
2021/05/25 02:35:09;;;;;;;5.57;2.00;;;;;;;24.41;31.83;99112.72;5034726;28;20125;-74
2021/05/25 02:37:36;;;;;;;12.70;2.20;;;;;;;24.48;32.06;99112.69;5018208;28;20064;-75
2021/05/25 02:40:03;;;;;;;8.48;2.17;;;;;;;24.50;32.10;99107.00;5018230;28;20064;-75
2021/05/25 02:42:29;;;;;;;7.07;1.90;;;;;;;24.51;32.14;99111.41;5018695;28;20052;-77
2021/05/25 02:44:55;;;;;;;11.30;1.92;;;;;;;24.56;32.15;99108.84;5051103;28;20080;-79
2021/05/25 02:47:21;;;;;;;15.18;1.70;;;;;;;24.57;32.25;99110.56;5051395;28;20041;-77
2021/05/25 02:49:47;;;;;;;8.90;2.15;;;;;;;24.52;32.44;99102.16;5051217;28;20086;-77
2021/05/25 02:52:13;;;;;;;27.13;2.60;;;;;;;24.59;32.42;99103.78;5052562;28;20051;-77
2021/05/25 02:54:39;;;;;;;11.05;3.15;;;;;;;24.70;32.24;99105.81;5041934;28;20048;-75
2021/05/25 02:57:06;;;;;;;11.02;2.15;;;;;;;24.58;32.82;99101.28;5055070;28;20049;-77
2021/05/25 02:59:33;;;;;;;17.50;2.22;;;;;;;24.64;32.74;99114.09;5038734;28;20056;-77
2021/05/25 03:01:59;;;;;;;14.32;2.45;;;;;;;24.79;32.58;99109.16;5038331;28;20040;-76
2021/05/25 03:04:25;;;;;;;19.73;2.70;;;;;;;24.76;32.87;99104.13;5056518;28;20127;-78
2021/05/25 03:06:51;;;;;;;7.57;2.00;;;;;;;24.82;32.91;99105.94;5054574;28;20182;-78
2021/05/25 03:09:17;;;;;;;13.77;2.53;;;;;;;24.92;32.79;99109.03;5039326;28;20033;-81
2021/05/25 03:11:44;;;;;;;12.30;2.47;;;;;;;25.04;33.01;99102.84;5038561;28;20464;-78
2021/05/25 03:14:11;;;;;;;10.00;2.23;;;;;;;25.09;33.13;99101.16;4989648;28;20049;-80
2021/05/25 03:16:37;;;;;;;19.77;2.40;;;;;;;25.19;33.24;99109.69;5056298;28;20319;-79
2021/05/25 03:19:04;;;;;;;16.92;2.25;;;;;;;25.23;33.20;99104.63;5038293;28;20041;-76
2021/05/25 03:21:29;;;;;;;14.57;2.80;;;;;;;25.31;33.19;99118.03;5054753;28;20037;-76
2021/05/25 03:23:55;;;;;;;10.50;2.03;;;;;;;25.35;33.21;99102.84;5055996;28;20072;-77
2021/05/25 03:26:22;;;;;;;10.07;2.50;;;;;;;25.43;33.63;99109.94;5021591;28;20086;-77
2021/05/25 03:28:48;;;;;;;11.32;2.25;;;;;;;25.52;33.53;99102.25;5055672;28;20041;-79
2021/05/25 03:31:14;;;;;;;6.75;2.33;;;;;;;25.65;33.66;99107.59;5047318;28;20041;-78
2021/05/25 03:33:40;;;;;;;29.10;2.53;;;;;;;25.76;33.51;99119.69;5065900;28;20029;-78
2021/05/25 03:36:06;;;;;;;14.10;2.25;;;;;;;25.88;33.64;99107.81;5009311;28;20472;-78
2021/05/25 03:38:32;;;;;;;6.70;2.20;;;;;;;25.89;33.61;99098.53;5021858;28;20083;-79
2021/05/25 03:40:58;;;;;;;12.63;2.65;;;;;;;26.01;33.79;99104.06;5037861;28;20087;-78
2021/05/25 03:43:24;;;;;;;11.00;2.58;;;;;;;26.08;33.85;99113.06;5054425;28;20124;-76
2021/05/25 03:45:50;;;;;;;10.88;2.35;;;;;;;26.18;33.81;99118.00;5054149;28;20427;-76
2021/05/25 03:48:19;;;;;;;6.72;2.38;;;;;;;26.16;33.75;99110.00;5021061;28;20430;-76
2021/05/25 03:50:45;;;;;;;;;;;;;;;26.24;34.18;99117.06;5021506;28;20051;-77
2021/05/25 03:53:11;;;;;;;23.73;2.70;;;;;;;26.32;34.17;99108.53;5054374;28;19916;-78
2021/05/25 03:55:55;;;;;;;14.65;3.42;;;;;;;26.49;34.03;99108.78;5014265;28;20055;-79
2021/05/25 04:01:05;;;;;;;15.32;2.42;;;;;;;26.46;34.18;99105.66;5059858;28;20044;-77
2021/05/25 04:03:33;;;;;;;13.57;2.30;;;;;;;26.58;34.38;99106.53;5040534;28;20036;-77
2021/05/25 04:05:59;;;;;;;16.58;2.70;;;;;;;26.79;34.15;99105.19;5022529;28;20048;-77
2021/05/25 04:08:25;;;;;;;10.43;2.33;;;;;;;26.85;34.35;99113.31;5055237;28;20049;-79
2021/05/25 04:10:51;;;;;;;11.88;2.47;;;;;;;26.93;34.19;99108.56;5054990;28;20044;-78
2021/05/25 04:13:18;;;;;;;11.63;2.42;;;;;;;27.02;34.09;99101.66;5007115;28;20064;-77
2021/05/25 04:15:48;;;;;;;13.27;2.40;;;;;;;27.07;34.19;99110.84;5039356;28;20499;-79
2021/05/25 04:18:14;;;;;;;12.52;2.50;;;;;;;27.17;33.81;99102.09;5056574;28;20041;-76
2021/05/25 04:20:40;;;;;;;11.90;3.10;;;;;;;27.32;34.29;99094.22;5055799;28;20064;-77
2021/05/25 04:23:06;;;;;;;14.65;2.88;;;;;;;27.46;33.94;99107.72;5072966;28;20131;-78
2021/05/25 04:25:33;;;;;;;14.15;3.30;;;;;;;27.50;33.80;99103.44;5023739;28;20149;-77
2021/05/25 04:27:59;;;;;;;21.88;3.25;;;;;;;27.72;33.82;99104.50;5056888;28;20044;-77
2021/05/25 04:30:25;;;;;;;13.48;3.08;;;;;;;27.78;33.37;99095.31;5056703;28;20041;-79
2021/05/25 04:32:51;;;;;;;25.48;3.28;;;;;;;27.88;33.46;99100.22;5039913;28;20039;-80
2021/05/25 04:35:17;;;;;;;22.33;3.60;;;;;;;27.96;33.38;99094.34;5056756;28;20512;-78
2021/05/25 04:37:43;;;;;;;15.57;3.75;;;;;;;28.14;33.45;99084.28;5023614;28;20649;-78
2021/05/25 04:40:10;;;;;;;20.02;3.67;;;;;;;28.31;33.28;99096.97;5056558;28;20135;-77
2021/05/25 04:42:36;;;;;;;19.83;3.78;;;;;;;28.49;33.38;99090.50;5056564;28;20044;-77
2021/05/25 04:45:03;;;;;;;21.58;3.75;;;;;;;28.64;32.74;99095.44;5056207;28;20041;-77
2021/05/25 04:47:29;;;;;;;17.58;3.80;;;;;;;28.66;31.17;99090.56;5057006;28;20094;-78
2021/05/25 04:49:55;;;;;;;13.60;3.28;;;;;;;28.75;31.75;99088.22;5073059;28;20542;-78
2021/05/25 04:52:21;;;;;;;14.45;3.50;;;;;;;28.91;31.71;99086.56;5072890;28;20044;-77
2021/05/25 04:54:47;;;;;;;17.10;3.35;;;;;;;29.04;31.78;99092.63;5023486;28;20040;-77
2021/05/25 04:57:13;;;;;;;22.65;4.43;;;;;;;29.14;31.68;99080.94;5039215;28;20570;-76
2021/05/25 04:59:39;;;;;;;17.50;3.20;;;;;;;29.32;31.35;99079.84;5039327;28;20083;-77
2021/05/25 05:02:06;;;;;;;25.90;3.65;;;;;;;29.53;31.42;99086.53;5056283;28;20059;-79
2021/05/25 05:04:32;;;;;;;14.18;3.20;;;;;;;29.64;31.51;99082.88;5039624;28;20052;-77
2021/05/25 05:06:58;;;;;;;16.05;3.03;;;;;;;29.79;31.24;99086.91;5056308;28;20036;-78
2021/05/25 05:09:24;;;;;;;16.80;2.92;;;;;;;29.88;30.86;99097.25;5056335;28;20047;-78
2021/05/25 05:11:50;;;;;;;23.58;3.03;;;;;;;29.98;30.71;99091.03;5056379;28;20056;-78
2021/05/25 05:14:16;;;;;;;17.35;2.53;;;;;;;30.13;30.42;99085.72;5022775;28;20174;-78
2021/05/25 05:16:43;;;;;;;19.15;2.38;;;;;;;30.20;30.09;99083.66;5055934;28;20048;-77
2021/05/25 05:19:09;;;;;;;9.70;2.50;;;;;;;30.22;29.67;99086.13;5072639;28;20051;-78
2021/05/25 05:21:35;;;;;;;16.33;2.75;;;;;;;30.26;29.68;99080.94;5055891;28;20036;-77
2021/05/25 05:24:01;;;;;;;17.45;2.83;;;;;;;30.36;29.45;99097.59;5072267;28;20135;-77
2021/05/25 05:26:27;;;;;;;19.02;3.95;;;;;;;30.43;29.45;99077.00;5073587;28;20048;-78
2021/05/25 05:28:53;;;;;;;13.07;2.80;;;;;;;30.55;29.40;99089.81;5055444;28;20077;-78
2021/05/25 05:31:19;;;;;;;19.80;3.42;;;;;;;30.58;29.21;99081.00;5039494;28;20134;-78
2021/05/25 05:33:45;;;;;;;18.60;2.50;;;;;;;30.70;29.08;99090.81;5023413;28;20048;-75
2021/05/25 05:36:15;;;;;;;14.63;2.47;;;;;;;30.82;28.85;99095.38;5039317;28;20048;-77
2021/05/25 05:38:43;;;;;;;11.50;2.42;;;;;;;30.96;28.75;99086.41;5072579;28;20055;-78
2021/05/25 05:41:09;;;;;;;16.33;2.28;;;;;;;31.04;28.88;99087.03;5039188;28;20079;-79
2021/05/25 05:43:35;;;;;;;19.65;2.50;;;;;;;31.07;28.70;99083.72;5022784;28;20462;-77
2021/05/25 05:46:01;;;;;;;16.27;2.58;;;;;;;31.17;28.71;99081.88;5055584;28;20097;-77
2021/05/25 05:48:27;;;;;;;8.52;2.28;;;;;;;31.38;28.11;99087.59;5055266;28;20059;-78
2021/05/25 05:50:54;;;;;;;11.27;2.90;;;;;;;31.41;28.11;99070.50;5055409;28;20040;-76
2021/05/25 05:53:20;;;;;;;11.35;2.88;;;;;;;31.68;27.83;99082.28;5072135;28;20115;-77
2021/05/25 05:55:46;;;;;;;10.93;3.13;;;;;;;31.74;27.67;99068.47;5054695;28;20060;-77
2021/05/25 05:58:13;;;;;;;12.20;3.15;;;;;;;31.92;27.67;99073.56;5071108;28;20044;-76
2021/05/25 06:00:41;;;;;;;23.20;3.05;;;;;;;32.03;27.76;99068.94;5071411;28;20068;-79
2021/05/25 06:03:08;;;;;;;20.67;3.13;;;;;;;32.17;27.67;99070.94;5055329;28;20051;-76
2021/05/25 06:05:35;;;;;;;8.30;2.90;;;;;;;32.27;27.84;99069.28;5071533;28;20387;-78
2021/05/25 06:08:03;;;;;;;12.77;2.95;;;;;;;32.49;27.89;99060.81;5055406;28;20552;-78
2021/05/25 06:10:31;;;;;;;15.23;2.53;;;;;;;32.58;28.06;99065.56;5038669;28;20052;-78
2021/05/25 06:12:57;;;;;;;21.42;2.97;;;;;;;32.71;28.17;99066.94;5055464;28;20048;-79
2021/05/25 06:15:24;;;;;;;5.93;2.10;;;;;;;32.79;26.62;99060.03;5055400;28;20040;-77
2021/05/25 06:17:50;;;;;;;15.23;2.33;;;;;;;32.86;26.50;99052.28;5071990;28;20066;-77
2021/05/25 06:20:16;;;;;;;11.65;2.35;;;;;;;33.01;25.92;99060.63;5038632;28;20044;-77
2021/05/25 06:22:42;;;;;;;11.07;2.25;;;;;;;33.01;25.40;99055.09;5054663;28;20380;-78
2021/05/25 06:25:09;;;;;;;14.07;2.15;;;;;;;33.13;25.60;99052.03;5071448;28;20060;-78
2021/05/25 06:27:36;;;;;;;10.77;2.58;;;;;;;33.36;25.10;99050.63;5038410;28;20052;-77
2021/05/25 06:30:05;;;;;;;13.60;2.40;;;;;;;33.53;24.95;99044.81;5021541;28;20093;-76
2021/05/25 06:32:31;;;;;;;13.52;2.30;;;;;;;33.68;25.19;99047.56;5054950;28;20127;-77
2021/05/25 06:34:57;;;;;;;18.35;2.80;;;;;;;33.82;25.45;99042.25;5005577;28;20071;-77
2021/05/25 06:37:23;;;;;;;12.85;2.83;;;;;;;33.95;25.47;99041.63;5054890;28;20084;-77
2021/05/25 06:39:49;;;;;;;11.32;2.67;;;;;;;33.97;25.56;99039.44;5054910;28;20040;-79
2021/05/25 06:42:15;;;;;;;16.52;2.42;;;;;;;34.17;24.70;99026.59;5038362;28;20380;-78
2021/05/25 06:44:41;;;;;;;15.38;3.05;;;;;;;34.22;24.72;99023.78;5072329;28;20055;-77
2021/05/25 06:47:07;;;;;;;9.85;2.33;;;;;;;34.40;24.45;99030.63;5072291;28;20399;-77
2021/05/25 06:49:33;;;;;;;16.02;2.30;;;;;;;34.30;22.45;99023.19;5054574;28;20089;-77
2021/05/25 06:51:59;;;;;;;11.90;2.30;;;;;;;34.25;21.39;99031.53;5070877;28;20421;-77
2021/05/25 06:54:25;;;;;;;17.65;2.10;;;;;;;34.41;21.42;99038.66;5054700;28;20046;-77
2021/05/25 06:56:51;;;;;;;24.50;2.22;;;;;;;34.42;20.58;99026.47;5072293;28;20048;-80
2021/05/25 06:59:17;;;;;;;11.40;2.20;;;;;;;34.41;20.46;99013.69;5071413;28;20400;-77
2021/05/25 07:01:43;;;;;;;24.83;2.15;;;;;;;34.41;20.80;99016.47;5071694;28;20194;-77
2021/05/25 07:04:09;;;;;;;14.00;2.05;;;;;;;34.72;20.39;99017.13;5021463;28;20037;-77
2021/05/25 07:06:35;;;;;;;7.63;1.75;;;;;;;34.85;20.23;99004.50;5071153;28;20063;-77
2021/05/25 07:09:03;;;;;;;9.25;1.75;;;;;;;34.95;20.10;99003.63;5054427;28;20487;-77
2021/05/25 07:11:29;;;;;;;9.03;1.90;;;;;;;34.95;19.68;99007.22;5038329;28;20098;-78
2021/05/25 07:13:55;;;;;;;10.95;1.92;;;;;;;34.99;19.56;99008.31;5071123;28;20430;-77
2021/05/25 07:16:22;;;;;;;14.57;1.95;;;;;;;35.03;19.79;99003.84;5070770;28;20048;-77
2021/05/25 07:18:48;;;;;;;12.57;1.83;;;;;;;35.12;19.56;99008.75;5054747;28;20416;-77
2021/05/25 07:21:14;;;;;;;15.50;2.08;;;;;;;35.31;19.35;99006.88;5072662;28;20074;-77
2021/05/25 07:23:40;;;;;;;8.43;1.92;;;;;;;35.36;19.31;99004.06;5054788;28;20064;-77
2021/05/25 07:26:06;;;;;;;7.20;2.10;;;;;;;35.42;19.28;98997.31;5071247;28;20415;-78
2021/05/25 07:28:32;;;;;;;8.05;1.75;;;;;;;35.57;19.48;98992.75;5072750;28;20123;-77
2021/05/25 07:30:58;;;;;;;14.38;2.17;;;;;;;35.71;19.40;98988.13;5071245;28;20148;-79
2021/05/25 07:33:26;;;;;;;16.45;2.28;;;;;;;35.91;19.20;98998.16;5038218;28;20052;-77
2021/05/25 07:35:52;;;;;;;5.93;1.70;;;;;;;35.79;18.68;98990.25;5070930;28;20048;-77
2021/05/25 07:38:19;;;;;;;8.57;1.70;;;;;;;35.98;19.01;98982.81;5054130;28;20083;-79
2021/05/25 07:40:45;;;;;;;11.05;2.17;;;;;;;36.14;19.18;98983.41;5055597;28;20044;-79
2021/05/25 07:43:11;;;;;;;18.92;2.25;;;;;;;36.24;18.81;99004.72;5074312;28;20051;-77
2021/05/25 07:45:37;;;;;;;7.82;1.60;;;;;;;36.19;18.37;98988.09;5075565;28;20037;-78
2021/05/25 07:48:04;;;;;;;21.40;2.38;;;;;;;36.46;18.60;98982.72;5040762;28;20048;-77
2021/05/25 07:50:31;;;;;;;12.13;3.55;;;;;;;36.83;18.10;98978.22;5057669;28;20099;-79
2021/05/25 07:52:57;;;;;;;14.02;2.08;;;;;;;36.83;17.83;98985.75;5074279;28;20067;-78
2021/05/25 07:55:28;;;;;;;23.45;2.80;;;;;;;36.65;17.29;98981.84;5057747;28;20040;-78
2021/05/25 07:57:54;;;;;;;13.15;2.35;;;;;;;36.45;16.99;98969.88;5074443;28;20097;-78
2021/05/25 08:00:20;;;;;;;20.80;2.40;;;;;;;36.63;17.60;98967.41;5074422;28;20036;-76
2021/05/25 08:02:47;;;;;;;12.57;1.90;;;;;;;36.63;17.18;98971.00;5040843;28;20041;-78
2021/05/25 08:05:13;;;;;;;7.20;1.73;;;;;;;36.63;17.01;98972.97;5074102;28;20050;-77
2021/05/25 08:07:40;;;;;;;12.38;2.03;;;;;;;36.85;16.66;98964.78;5073870;28;20043;-78
2021/05/25 08:10:06;;;;;;;15.15;1.90;;;;;;;36.77;16.95;98957.13;5057435;28;20045;-77
2021/05/25 08:12:33;;;;;;;16.08;2.33;;;;;;;36.61;17.05;98956.56;5054537;28;20466;-76
2021/05/25 08:15:00;;;;;;;17.15;2.13;;;;;;;36.64;16.88;98949.59;4986433;28;20133;-78
2021/05/25 08:20:14;;;;;;;9.40;1.80;;;;;;;36.88;16.70;98941.91;5039322;28;20045;-77
2021/05/25 08:22:41;;;;;;;3.63;1.50;;;;;;;37.35;16.74;98941.88;5039772;28;20040;-77
2021/05/25 08:25:07;;;;;;;13.60;2.00;;;;;;;37.58;16.73;98940.91;5037240;28;20057;-77
2021/05/25 08:27:34;;;;;;;10.23;1.80;;;;;;;37.80;16.64;98942.94;5020660;28;20041;-77
2021/05/25 08:30:01;;;;;;;16.48;1.90;;;;;;;37.84;16.51;98937.53;5004029;28;20419;-76
2021/05/25 08:32:29;;;;;;;8.70;1.83;;;;;;;37.80;16.73;98940.16;5021683;28;20127;-76
2021/05/25 08:34:55;;;;;;;17.70;2.10;;;;;;;37.72;16.40;98937.25;5037197;28;20045;-78
2021/05/25 08:37:21;;;;;;;11.98;2.28;;;;;;;37.71;16.38;98950.38;5020337;28;20041;-78
2021/05/25 08:39:47;;;;;;;22.33;2.10;;;;;;;37.74;16.16;98916.28;4987807;28;20522;-76
2021/05/25 08:42:13;;;;;;;6.15;1.45;;;;;;;37.99;16.24;98911.31;5036484;28;20045;-78
2021/05/25 08:44:39;;;;;;;11.05;1.60;;;;;;;38.03;16.34;98920.72;5003935;28;20041;-77
2021/05/25 08:47:06;;;;;;;10.00;2.13;;;;;;;38.14;16.40;98908.16;5020180;28;20507;-77
2021/05/25 08:49:34;;;;;;;7.47;1.73;;;;;;;38.36;16.05;98911.00;5003823;28;20450;-79
2021/05/25 08:52:02;;;;;;;6.22;1.95;;;;;;;38.43;16.46;98909.72;5019766;28;20114;-77
2021/05/25 08:54:29;;;;;;;14.45;2.38;;;;;;;38.50;15.98;98912.91;5019981;28;20058;-78
2021/05/25 08:56:55;;;;;;;12.70;2.13;;;;;;;38.62;15.91;98913.16;5019603;28;20049;-78
2021/05/25 08:59:21;;;;;;;8.90;1.65;;;;;;;38.47;15.63;98919.13;5019982;28;20067;-76
2021/05/25 09:01:49;;;;;;;16.40;2.10;;;;;;;38.42;15.64;98905.31;5003209;28;20492;-78
2021/05/25 09:04:15;;;;;;;11.05;1.58;;;;;;;38.39;15.45;98915.13;5019682;28;20048;-77
2021/05/25 09:06:46;;;;;;;4.90;1.45;;;;;;;38.37;15.68;98890.31;5036109;28;20047;-77
2021/05/25 09:09:13;;;;;;;6.75;3.33;;;;;;;38.52;15.81;98903.09;5036183;28;20136;-77
2021/05/25 09:11:59;;;;;;;12.10;1.85;;;;;;;38.54;15.82;98908.34;5003183;28;20044;-78
2021/05/25 09:14:26;;;;;;;18.42;1.95;;;;;;;38.56;15.87;98903.28;5001282;28;20052;-77
2021/05/25 09:17:15;;;;;;;7.57;1.50;;;;;;;38.58;15.80;98889.78;5039782;28;20040;-77
2021/05/25 09:19:57;;;;;;;10.10;2.03;;;;;;;38.92;15.75;98882.78;5056112;28;20055;-77
2021/05/25 09:22:40;;;;;;;8.32;1.60;;;;;;;39.40;15.46;98894.03;5073151;28;20078;-77
2021/05/25 09:25:20;;;;;;;13.48;2.05;;;;;;;39.46;14.94;98889.94;5057088;28;20491;-77
2021/05/25 09:27:56;;;;;;;13.80;2.05;;;;;;;39.20;15.55;98884.25;5072494;28;20048;-77
2021/05/25 09:30:25;;;;;;;19.20;1.70;;;;;;;39.24;15.32;98876.06;5056979;28;20048;-77
2021/05/25 09:32:57;;;;;;;12.05;1.77;;;;;;;39.54;15.33;98872.34;5022926;28;20124;-78
2021/05/25 09:35:30;;;;;;;12.43;2.10;;;;;;;39.74;15.58;98865.34;5039238;28;20048;-78
2021/05/25 09:37:58;;;;;;;15.57;1.80;;;;;;;39.88;15.42;98867.19;5007098;28;20573;-78
2021/05/25 09:40:24;;;;;;;;;;;;;;;40.04;15.04;98863.53;5039729;28;20076;-77
2021/05/25 09:42:54;;;;;;;16.45;2.15;;;;;;;40.17;15.01;98878.56;5071994;28;19923;-78
2021/05/25 09:45:19;;;;;;;19.75;2.15;;;;;;;40.53;14.96;98871.75;5072200;28;20096;-77
2021/05/25 09:47:49;;;;;;;6.63;1.52;;;;;;;40.52;14.57;98856.13;5073109;28;20143;-78
2021/05/25 09:50:16;;;;;;;5.53;1.60;;;;;;;40.76;14.86;98859.19;5023263;28;20507;-78
2021/05/25 09:53:06;;;;;;;5.80;1.50;;;;;;;41.21;14.44;98875.53;5022617;28;20128;-78
2021/05/25 09:55:45;;;;;;;9.73;2.03;;;;;;;41.31;14.56;98842.69;5023838;28;20472;-77
2021/05/25 09:58:11;;;;;;;9.90;1.70;;;;;;;41.61;14.73;98852.75;5072177;28;20084;-78
2021/05/25 10:00:39;;;;;;;7.00;1.67;;;;;;;41.45;14.83;98849.72;5072115;28;20557;-78
2021/05/25 10:03:06;;;;;;;11.77;1.60;;;;;;;41.86;14.43;98864.97;5038262;28;20131;-77
2021/05/25 10:05:32;;;;;;;9.90;1.80;;;;;;;42.24;14.19;98851.91;5055200;28;20499;-79
2021/05/25 10:08:01;;;;;;;5.80;1.48;;;;;;;42.40;14.17;98850.16;5072478;28;20063;-79
2021/05/25 10:10:28;;;;;;;9.65;1.80;;;;;;;42.18;14.10;98840.09;5071947;28;20109;-77
2021/05/25 10:12:55;;;;;;;10.80;1.85;;;;;;;42.15;14.12;98833.16;5068377;28;20060;-77
2021/05/25 10:15:23;;;;;;;13.32;2.03;;;;;;;42.04;14.06;98854.41;5002600;28;20411;-78
2021/05/25 10:20:28;;;;;;;7.82;2.05;;;;;;;42.64;13.88;98815.66;5020164;28;20041;-78
2021/05/25 10:22:54;;;;;;;5.00;1.50;;;;;;;42.95;13.79;98812.34;4986094;28;20102;-77
2021/05/25 10:25:20;;;;;;;7.68;1.70;;;;;;;43.44;13.63;98831.22;4986119;28;20067;-77
2021/05/25 10:27:47;;;;;;;7.43;1.95;;;;;;;43.73;13.29;98828.13;5001963;28;20401;-77
2021/05/25 10:30:40;;;;;;;4.53;1.77;;;;;;;43.49;13.26;98834.66;4986462;28;20041;-78
2021/05/25 10:33:06;;;;;;;5.65;1.38;;;;;;;43.51;13.30;98821.03;4994478;28;20071;-77
2021/05/25 10:35:54;;;;;;;4.85;1.60;;;;;;;43.46;13.28;98818.44;5001998;28;20080;-76
2021/05/25 10:38:45;;;;;;;7.43;1.55;;;;;;;43.31;13.32;98805.91;5018403;28;20190;-77
2021/05/25 10:41:31;;;;;;;14.32;4.28;;;;;;;43.81;13.24;98806.66;5019855;28;20522;-78
2021/05/25 10:43:57;;;;;;;4.70;1.48;;;;;;;43.99;13.29;98810.03;4987723;28;20090;-78
2021/05/25 10:46:24;;;;;;;8.55;1.48;;;;;;;44.23;13.17;98806.25;4969775;28;20411;-77
2021/05/25 10:48:52;;;;;;;9.20;2.10;;;;;;;43.66;13.20;98807.41;5002000;28;20052;-77
2021/05/25 10:51:18;;;;;;;9.55;2.35;;;;;;;43.35;13.63;98800.41;5034426;28;20110;-78
2021/05/25 10:53:44;;;;;;;4.97;2.05;;;;;;;42.55;13.83;98804.53;5017973;28;20132;-78
2021/05/25 10:56:37;;;;;;;22.60;2.67;;;;;;;41.44;14.06;98796.75;5031912;28;20179;-77
2021/05/25 10:59:06;;;;;;;17.13;2.22;;;;;;;42.06;14.00;98790.31;5013965;28;20132;-78
2021/05/25 11:01:32;;;;;;;18.05;2.40;;;;;;;42.51;13.94;98800.78;5016545;28;20060;-77
2021/05/25 11:04:08;;;;;;;7.00;2.10;;;;;;;43.23;13.49;98783.53;5016323;28;20059;-77
2021/05/25 11:06:35;;;;;;;7.97;1.80;;;;;;;43.84;12.93;98792.69;5018707;28;20040;-79
2021/05/25 11:09:27;;;;;;;10.23;1.90;;;;;;;44.13;12.84;98787.91;5002735;28;20036;-77
2021/05/25 11:12:12;;;;;;;9.88;1.42;;;;;;;44.80;12.84;98774.84;5018226;28;20048;-79
2021/05/25 11:15:13;;;;;;;9.05;1.60;;;;;;;45.50;12.29;98782.59;5069475;28;20150;-76
2021/05/25 11:17:40;;;;;;;16.55;1.75;;;;;;;45.17;11.99;98788.63;5074785;28;20052;-79
2021/05/25 11:20:51;;;;;;;8.90;1.60;;;;;;;45.04;12.15;98790.75;5058060;28;20051;-77
2021/05/25 11:23:38;;;;;;;9.23;1.70;;;;;;;43.67;12.67;98778.06;5075596;28;20503;-76
2021/05/25 11:26:04;;;;;;;13.07;1.90;;;;;;;44.14;12.71;98763.38;5041051;28;20048;-76
2021/05/25 11:29:15;;;;;;;11.20;1.50;;;;;;;45.05;12.49;98769.81;5024815;28;20047;-77
2021/05/25 11:31:41;;;;;;;12.43;1.85;;;;;;;45.44;11.88;98764.31;5049165;28;20049;-78
2021/05/25 11:34:07;;;;;;;23.08;1.70;;;;;;;45.80;12.06;98770.72;5057822;28;20410;-77
2021/05/25 11:36:34;;;;;;;9.45;2.00;;;;;;;45.77;11.74;98760.16;5057938;28;20044;-78
2021/05/25 11:39:10;;;;;;;5.40;1.65;;;;;;;44.97;12.00;98759.53;5074557;28;20036;-78
2021/05/25 11:41:36;;;;;;;8.93;1.50;;;;;;;44.24;12.80;98746.75;5041082;28;20048;-78